sensor_id;sensor_type;location;lat;lon;timestamp;temperature;humidity
66026;SHT31;56312;55.976;37.136;2023-02-24T00:01:59;-9.53;77.69
66026;SHT31;56312;55.976;37.136;2023-02-24T00:07:08;-9.52;77.75
66026;SHT31;56312;55.976;37.136;2023-02-24T00:12:17;-9.50;77.71
66026;SHT31;56312;55.976;37.136;2023-02-24T00:17:25;-9.48;77.70
66026;SHT31;56312;55.976;37.136;2023-02-24T00:22:35;-9.46;77.70
66026;SHT31;56312;55.976;37.136;2023-02-24T00:27:41;-9.43;77.68
66026;SHT31;56312;55.976;37.136;2023-02-24T00:32:47;-9.43;77.67
66026;SHT31;56312;55.976;37.136;2023-02-24T00:37:54;-9.43;77.66
66026;SHT31;56312;55.976;37.136;2023-02-24T00:43:00;-9.46;77.65
66026;SHT31;56312;55.976;37.136;2023-02-24T00:48:06;-9.45;77.63
66026;SHT31;56312;55.976;37.136;2023-02-24T00:53:15;-9.48;77.62
66026;SHT31;56312;55.976;37.136;2023-02-24T00:58:23;-9.49;77.63
66026;SHT31;56312;55.976;37.136;2023-02-24T01:03:34;-9.50;77.60
66026;SHT31;56312;55.976;37.136;2023-02-24T01:08:41;-9.53;77.59
66026;SHT31;56312;55.976;37.136;2023-02-24T01:13:52;-9.55;77.62
66026;SHT31;56312;55.976;37.136;2023-02-24T01:18:59;-9.55;77.62
66026;SHT31;56312;55.976;37.136;2023-02-24T01:24:05;-9.56;77.64
66026;SHT31;56312;55.976;37.136;2023-02-24T01:29:11;-9.55;77.64
66026;SHT31;56312;55.976;37.136;2023-02-24T01:34:18;-9.53;77.68
66026;SHT31;56312;55.976;37.136;2023-02-24T01:39:24;-9.53;77.71
66026;SHT31;56312;55.976;37.136;2023-02-24T01:49:46;-9.48;77.73
66026;SHT31;56312;55.976;37.136;2023-02-24T01:55:19;-9.48;77.76
66026;SHT31;56312;55.976;37.136;2023-02-24T02:00:28;-9.45;77.81
66026;SHT31;56312;55.976;37.136;2023-02-24T02:05:44;-9.45;77.79
66026;SHT31;56312;55.976;37.136;2023-02-24T02:10:54;-9.42;77.84
66026;SHT31;56312;55.976;37.136;2023-02-24T02:16:37;-9.42;77.84
66026;SHT31;56312;55.976;37.136;2023-02-24T02:43:37;-9.45;77.92
66026;SHT31;56312;55.976;37.136;2023-02-24T02:48:57;-9.42;77.95
66026;SHT31;56312;55.976;37.136;2023-02-24T02:54:32;-9.41;77.96
66026;SHT31;56312;55.976;37.136;2023-02-24T02:59:46;-9.43;77.95
66026;SHT31;56312;55.976;37.136;2023-02-24T03:04:58;-9.43;77.96
66026;SHT31;56312;55.976;37.136;2023-02-24T03:10:19;-9.46;77.94
66026;SHT31;56312;55.976;37.136;2023-02-24T03:15:30;-9.50;77.95
66026;SHT31;56312;55.976;37.136;2023-02-24T03:20:50;-9.50;77.97
66026;SHT31;56312;55.976;37.136;2023-02-24T03:36:40;-9.43;78.03
66026;SHT31;56312;55.976;37.136;2023-02-24T03:42:03;-9.42;78.11
66026;SHT31;56312;55.976;37.136;2023-02-24T03:47:11;-9.41;78.10
66026;SHT31;56312;55.976;37.136;2023-02-24T04:02:39;-9.34;78.21
66026;SHT31;56312;55.976;37.136;2023-02-24T04:08:00;-9.28;78.25
66026;SHT31;56312;55.976;37.136;2023-02-24T04:13:19;-9.22;78.29
66026;SHT31;56312;55.976;37.136;2023-02-24T04:18:30;-9.18;78.31
66026;SHT31;56312;55.976;37.136;2023-02-24T04:23:39;-9.14;78.36
66026;SHT31;56312;55.976;37.136;2023-02-24T04:28:48;-9.14;78.35
66026;SHT31;56312;55.976;37.136;2023-02-24T04:33:54;-9.07;78.41
66026;SHT31;56312;55.976;37.136;2023-02-24T04:39:00;-9.05;78.43
66026;SHT31;56312;55.976;37.136;2023-02-24T04:44:07;-9.01;78.46
66026;SHT31;56312;55.976;37.136;2023-02-24T04:49:13;-9.00;78.48
66026;SHT31;56312;55.976;37.136;2023-02-24T04:54:20;-8.96;78.50
66026;SHT31;56312;55.976;37.136;2023-02-24T04:59:26;-8.91;78.56
66026;SHT31;56312;55.976;37.136;2023-02-24T05:04:34;-8.90;78.62
66026;SHT31;56312;55.976;37.136;2023-02-24T05:09:43;-8.87;78.69
66026;SHT31;56312;55.976;37.136;2023-02-24T05:14:52;-8.86;78.79
66026;SHT31;56312;55.976;37.136;2023-02-24T05:19:58;-8.87;78.89
66026;SHT31;56312;55.976;37.136;2023-02-24T05:25:22;-8.87;79.00
66026;SHT31;56312;55.976;37.136;2023-02-24T05:30:30;-8.84;79.13
66026;SHT31;56312;55.976;37.136;2023-02-24T05:35:36;-8.83;79.20
66026;SHT31;56312;55.976;37.136;2023-02-24T05:40:42;-8.82;79.29
66026;SHT31;56312;55.976;37.136;2023-02-24T05:45:51;-8.80;79.41
66026;SHT31;56312;55.976;37.136;2023-02-24T05:50:57;-8.76;79.47
66026;SHT31;56312;55.976;37.136;2023-02-24T05:56:04;-8.70;79.52
66026;SHT31;56312;55.976;37.136;2023-02-24T06:01:11;-8.67;79.58
66026;SHT31;56312;55.976;37.136;2023-02-24T06:06:26;-8.59;79.67
66026;SHT31;56312;55.976;37.136;2023-02-24T06:11:33;-8.52;79.78
66026;SHT31;56312;55.976;37.136;2023-02-24T06:16:40;-8.46;79.76
66026;SHT31;56312;55.976;37.136;2023-02-24T06:21:48;-8.42;79.84
66026;SHT31;56312;55.976;37.136;2023-02-24T06:26:56;-8.34;79.89
66026;SHT31;56312;55.976;37.136;2023-02-24T06:32:19;-8.29;79.96
66026;SHT31;56312;55.976;37.136;2023-02-24T06:37:26;-8.22;80.03
66026;SHT31;56312;55.976;37.136;2023-02-24T06:42:33;-8.15;80.09
66026;SHT31;56312;55.976;37.136;2023-02-24T06:47:40;-8.10;80.14
66026;SHT31;56312;55.976;37.136;2023-02-24T06:52:48;-8.05;80.19
66026;SHT31;56312;55.976;37.136;2023-02-24T06:57:57;-7.98;80.23
66026;SHT31;56312;55.976;37.136;2023-02-24T07:03:08;-7.94;80.27
66026;SHT31;56312;55.976;37.136;2023-02-24T07:08:22;-7.84;80.32
66026;SHT31;56312;55.976;37.136;2023-02-24T07:13:28;-7.77;80.37
66026;SHT31;56312;55.976;37.136;2023-02-24T07:18:35;-7.69;80.38
66026;SHT31;56312;55.976;37.136;2023-02-24T07:23:45;-7.62;80.42
66026;SHT31;56312;55.976;37.136;2023-02-24T07:28:54;-7.59;80.45
66026;SHT31;56312;55.976;37.136;2023-02-24T07:34:02;-7.52;80.47
66026;SHT31;56312;55.976;37.136;2023-02-24T07:39:08;-7.45;80.49
66026;SHT31;56312;55.976;37.136;2023-02-24T07:44:17;-7.40;80.56
66026;SHT31;56312;55.976;37.136;2023-02-24T07:49:24;-7.32;80.58
66026;SHT31;56312;55.976;37.136;2023-02-24T07:54:33;-7.22;80.60
66026;SHT31;56312;55.976;37.136;2023-02-24T07:59:39;-7.14;80.68
66026;SHT31;56312;55.976;37.136;2023-02-24T08:04:51;-7.05;80.68
66026;SHT31;56312;55.976;37.136;2023-02-24T08:09:59;-6.97;80.69
66026;SHT31;56312;55.976;37.136;2023-02-24T08:15:15;-6.89;80.70
66026;SHT31;56312;55.976;37.136;2023-02-24T08:20:30;-6.84;80.71
66026;SHT31;56312;55.976;37.136;2023-02-24T08:26:09;-6.75;80.75
66026;SHT31;56312;55.976;37.136;2023-02-24T08:31:17;-6.70;80.74
66026;SHT31;56312;55.976;37.136;2023-02-24T08:36:23;-6.65;80.76
66026;SHT31;56312;55.976;37.136;2023-02-24T08:41:30;-6.62;80.83
66026;SHT31;56312;55.976;37.136;2023-02-24T08:47:00;-6.59;80.79
66026;SHT31;56312;55.976;37.136;2023-02-24T08:52:09;-6.56;80.83
66026;SHT31;56312;55.976;37.136;2023-02-24T08:57:17;-6.52;80.87
66026;SHT31;56312;55.976;37.136;2023-02-24T09:02:25;-6.46;80.91
66026;SHT31;56312;55.976;37.136;2023-02-24T09:07:35;-6.43;80.94
66026;SHT31;56312;55.976;37.136;2023-02-24T09:12:42;-6.38;80.99
66026;SHT31;56312;55.976;37.136;2023-02-24T09:17:49;-6.29;80.97
66026;SHT31;56312;55.976;37.136;2023-02-24T09:22:57;-6.24;81.03
66026;SHT31;56312;55.976;37.136;2023-02-24T09:28:11;-6.14;81.08
66026;SHT31;56312;55.976;37.136;2023-02-24T09:33:32;-6.04;81.12
66026;SHT31;56312;55.976;37.136;2023-02-24T09:38:49;-5.94;81.13
66026;SHT31;56312;55.976;37.136;2023-02-24T09:44:13;-5.86;81.18
66026;SHT31;56312;55.976;37.136;2023-02-24T09:49:54;-5.75;81.19
66026;SHT31;56312;55.976;37.136;2023-02-24T10:06:13;-5.40;81.28
66026;SHT31;56312;55.976;37.136;2023-02-24T10:11:20;-5.34;81.28
66026;SHT31;56312;55.976;37.136;2023-02-24T10:16:40;-5.11;81.38
66026;SHT31;56312;55.976;37.136;2023-02-24T10:21:57;-4.80;81.50
66026;SHT31;56312;55.976;37.136;2023-02-24T10:27:12;-4.77;81.26
66026;SHT31;56312;55.976;37.136;2023-02-24T10:37:41;-4.59;81.25
66026;SHT31;56312;55.976;37.136;2023-02-24T10:42:48;-4.53;81.22
66026;SHT31;56312;55.976;37.136;2023-02-24T10:47:57;-4.39;81.16
66026;SHT31;56312;55.976;37.136;2023-02-24T10:53:06;-4.46;80.97
66026;SHT31;56312;55.976;37.136;2023-02-24T10:58:32;-4.59;80.85
66026;SHT31;56312;55.976;37.136;2023-02-24T11:04:04;-4.72;80.82
66026;SHT31;56312;55.976;37.136;2023-02-24T11:09:29;-4.83;80.83
66026;SHT31;56312;55.976;37.136;2023-02-24T11:14:56;-4.87;80.81
66026;SHT31;56312;55.976;37.136;2023-02-24T11:25:47;-5.00;80.86
66026;SHT31;56312;55.976;37.136;2023-02-24T11:31:12;-5.04;80.93
66026;SHT31;56312;55.976;37.136;2023-02-24T11:36:33;-5.07;80.97
66026;SHT31;56312;55.976;37.136;2023-02-24T11:41:46;-5.08;81.03
66026;SHT31;56312;55.976;37.136;2023-02-24T11:46:59;-5.07;81.03
66026;SHT31;56312;55.976;37.136;2023-02-24T11:52:18;-5.08;81.05
66026;SHT31;56312;55.976;37.136;2023-02-24T11:57:45;-5.11;81.08
66026;SHT31;56312;55.976;37.136;2023-02-24T12:03:00;-5.08;81.15
66026;SHT31;56312;55.976;37.136;2023-02-24T12:08:42;-5.03;81.20
66026;SHT31;56312;55.976;37.136;2023-02-24T12:20:08;-5.05;81.23
66026;SHT31;56312;55.976;37.136;2023-02-24T12:25:12;-5.11;81.24
66026;SHT31;56312;55.976;37.136;2023-02-24T12:35:46;-5.07;81.37
66026;SHT31;56312;55.976;37.136;2023-02-24T12:41:09;-5.07;81.44
66026;SHT31;56312;55.976;37.136;2023-02-24T12:46:30;-5.05;81.44
66026;SHT31;56312;55.976;37.136;2023-02-24T12:57:34;-5.05;81.49
66026;SHT31;56312;55.976;37.136;2023-02-24T13:02:56;-5.07;81.54
66026;SHT31;56312;55.976;37.136;2023-02-24T13:18:35;-5.05;81.58
66026;SHT31;56312;55.976;37.136;2023-02-24T13:23:55;-5.10;81.64
66026;SHT31;56312;55.976;37.136;2023-02-24T13:29:12;-5.07;81.72
66026;SHT31;56312;55.976;37.136;2023-02-24T13:34:32;-5.08;81.71
66026;SHT31;56312;55.976;37.136;2023-02-24T13:39:39;-5.07;81.71
66026;SHT31;56312;55.976;37.136;2023-02-24T13:45:01;-5.10;81.75
66026;SHT31;56312;55.976;37.136;2023-02-24T14:01:12;-5.18;81.85
66026;SHT31;56312;55.976;37.136;2023-02-24T14:06:23;-5.18;81.89
66026;SHT31;56312;55.976;37.136;2023-02-24T14:11:33;-5.21;81.91
66026;SHT31;56312;55.976;37.136;2023-02-24T14:16:43;-5.22;81.94
66026;SHT31;56312;55.976;37.136;2023-02-24T14:21:58;-5.21;81.98
66026;SHT31;56312;55.976;37.136;2023-02-24T14:27:04;-5.24;81.98
66026;SHT31;56312;55.976;37.136;2023-02-24T14:32:19;-5.24;82.08
66026;SHT31;56312;55.976;37.136;2023-02-24T14:37:29;-5.25;82.08
66026;SHT31;56312;55.976;37.136;2023-02-24T14:42:45;-5.24;82.12
66026;SHT31;56312;55.976;37.136;2023-02-24T14:47:54;-5.25;82.19
66026;SHT31;56312;55.976;37.136;2023-02-24T14:53:04;-5.21;82.27
66026;SHT31;56312;55.976;37.136;2023-02-24T14:58:29;-5.21;82.22
66026;SHT31;56312;55.976;37.136;2023-02-24T15:03:44;-5.19;82.27
66026;SHT31;56312;55.976;37.136;2023-02-24T15:08:59;-5.24;82.23
66026;SHT31;56312;55.976;37.136;2023-02-24T15:14:14;-5.28;82.26
66026;SHT31;56312;55.976;37.136;2023-02-24T15:19:31;-5.27;82.34
66026;SHT31;56312;55.976;37.136;2023-02-24T15:24:37;-5.24;82.46
66026;SHT31;56312;55.976;37.136;2023-02-24T15:29:44;-5.21;82.52
66026;SHT31;56312;55.976;37.136;2023-02-24T15:35:01;-5.24;82.53
66026;SHT31;56312;55.976;37.136;2023-02-24T15:40:20;-5.24;82.57
66026;SHT31;56312;55.976;37.136;2023-02-24T15:45:36;-5.25;82.65
66026;SHT31;56312;55.976;37.136;2023-02-24T15:50:42;-5.24;82.77
66026;SHT31;56312;55.976;37.136;2023-02-24T15:55:49;-5.18;82.85
66026;SHT31;56312;55.976;37.136;2023-02-24T16:00:56;-5.17;82.89
66026;SHT31;56312;55.976;37.136;2023-02-24T16:06:02;-5.15;82.95
66026;SHT31;56312;55.976;37.136;2023-02-24T16:11:10;-5.14;83.00
66026;SHT31;56312;55.976;37.136;2023-02-24T16:16:17;-5.11;83.03
66026;SHT31;56312;55.976;37.136;2023-02-24T16:21:24;-5.15;83.02
66026;SHT31;56312;55.976;37.136;2023-02-24T16:26:35;-5.18;83.08
66026;SHT31;56312;55.976;37.136;2023-02-24T16:31:41;-5.18;83.06
66026;SHT31;56312;55.976;37.136;2023-02-24T16:36:49;-5.18;83.16
66026;SHT31;56312;55.976;37.136;2023-02-24T16:41:55;-5.24;83.14
66026;SHT31;56312;55.976;37.136;2023-02-24T16:47:03;-5.28;83.18
66026;SHT31;56312;55.976;37.136;2023-02-24T16:52:14;-5.22;83.23
66026;SHT31;56312;55.976;37.136;2023-02-24T16:57:23;-5.29;83.29
66026;SHT31;56312;55.976;37.136;2023-02-24T17:02:30;-5.24;83.29
66026;SHT31;56312;55.976;37.136;2023-02-24T17:07:36;-5.27;83.29
66026;SHT31;56312;55.976;37.136;2023-02-24T17:12:44;-5.25;83.32
66026;SHT31;56312;55.976;37.136;2023-02-24T17:17:50;-5.22;83.37
66026;SHT31;56312;55.976;37.136;2023-02-24T17:22:57;-5.28;83.34
66026;SHT31;56312;55.976;37.136;2023-02-24T17:28:04;-5.22;83.46
66026;SHT31;56312;55.976;37.136;2023-02-24T17:33:11;-5.19;83.44
66026;SHT31;56312;55.976;37.136;2023-02-24T17:38:20;-5.15;83.49
66026;SHT31;56312;55.976;37.136;2023-02-24T17:43:28;-5.07;83.53
66026;SHT31;56312;55.976;37.136;2023-02-24T17:48:34;-5.10;83.51
66026;SHT31;56312;55.976;37.136;2023-02-24T17:53:41;-5.10;83.57
66026;SHT31;56312;55.976;37.136;2023-02-24T17:58:47;-5.10;83.51
66026;SHT31;56312;55.976;37.136;2023-02-24T18:03:54;-5.05;83.63
66026;SHT31;56312;55.976;37.136;2023-02-24T18:09:02;-5.05;83.58
66026;SHT31;56312;55.976;37.136;2023-02-24T18:14:08;-5.11;83.60
66026;SHT31;56312;55.976;37.136;2023-02-24T18:19:14;-5.07;83.66
66026;SHT31;56312;55.976;37.136;2023-02-24T18:24:21;-5.07;83.65
66026;SHT31;56312;55.976;37.136;2023-02-24T18:29:31;-5.12;83.65
66026;SHT31;56312;55.976;37.136;2023-02-24T18:34:37;-5.07;83.73
66026;SHT31;56312;55.976;37.136;2023-02-24T18:39:43;-5.11;83.72
66026;SHT31;56312;55.976;37.136;2023-02-24T18:44:50;-5.08;83.74
66026;SHT31;56312;55.976;37.136;2023-02-24T18:49:56;-5.08;83.79
66026;SHT31;56312;55.976;37.136;2023-02-24T18:55:02;-5.08;83.75
66026;SHT31;56312;55.976;37.136;2023-02-24T19:00:09;-5.04;83.79
66026;SHT31;56312;55.976;37.136;2023-02-24T19:05:16;-5.04;83.83
66026;SHT31;56312;55.976;37.136;2023-02-24T19:10:22;-5.01;83.88
66026;SHT31;56312;55.976;37.136;2023-02-24T19:15:29;-4.98;83.94
66026;SHT31;56312;55.976;37.136;2023-02-24T19:20:35;-4.94;83.92
66026;SHT31;56312;55.976;37.136;2023-02-24T19:25:41;-4.93;83.95
66026;SHT31;56312;55.976;37.136;2023-02-24T19:30:47;-4.93;83.96
66026;SHT31;56312;55.976;37.136;2023-02-24T19:35:57;-4.91;83.95
66026;SHT31;56312;55.976;37.136;2023-02-24T19:41:04;-4.87;83.98
66026;SHT31;56312;55.976;37.136;2023-02-24T19:46:12;-4.93;83.96
66026;SHT31;56312;55.976;37.136;2023-02-24T19:51:21;-4.90;84.03
66026;SHT31;56312;55.976;37.136;2023-02-24T19:56:31;-4.86;84.04
66026;SHT31;56312;55.976;37.136;2023-02-24T20:01:37;-4.89;84.08
66026;SHT31;56312;55.976;37.136;2023-02-24T20:06:43;-4.81;84.15
66026;SHT31;56312;55.976;37.136;2023-02-24T20:11:50;-4.79;84.13
66026;SHT31;56312;55.976;37.136;2023-02-24T20:16:56;-4.84;84.09
66026;SHT31;56312;55.976;37.136;2023-02-24T20:22:03;-4.84;84.13
66026;SHT31;56312;55.976;37.136;2023-02-24T20:27:09;-4.81;84.17
66026;SHT31;56312;55.976;37.136;2023-02-24T20:32:15;-4.84;84.15
66026;SHT31;56312;55.976;37.136;2023-02-24T20:37:21;-4.86;84.18
66026;SHT31;56312;55.976;37.136;2023-02-24T20:42:28;-4.83;84.20
66026;SHT31;56312;55.976;37.136;2023-02-24T20:47:34;-4.87;84.17
66026;SHT31;56312;55.976;37.136;2023-02-24T20:52:40;-4.86;84.22
66026;SHT31;56312;55.976;37.136;2023-02-24T20:57:47;-4.83;84.25
66026;SHT31;56312;55.976;37.136;2023-02-24T21:02:56;-4.83;84.27
66026;SHT31;56312;55.976;37.136;2023-02-24T21:08:03;-4.79;84.31
66026;SHT31;56312;55.976;37.136;2023-02-24T21:13:09;-4.79;84.35
66026;SHT31;56312;55.976;37.136;2023-02-24T21:18:15;-4.79;84.32
66026;SHT31;56312;55.976;37.136;2023-02-24T21:23:22;-4.79;84.30
66026;SHT31;56312;55.976;37.136;2023-02-24T21:28:29;-4.80;84.33
66026;SHT31;56312;55.976;37.136;2023-02-24T21:33:35;-4.76;84.39
66026;SHT31;56312;55.976;37.136;2023-02-24T21:38:42;-4.70;84.48
66026;SHT31;56312;55.976;37.136;2023-02-24T21:43:52;-4.73;84.46
66026;SHT31;56312;55.976;37.136;2023-02-24T21:49:01;-4.72;84.44
66026;SHT31;56312;55.976;37.136;2023-02-24T21:54:08;-4.69;84.51
66026;SHT31;56312;55.976;37.136;2023-02-24T21:59:17;-4.68;84.49
66026;SHT31;56312;55.976;37.136;2023-02-24T22:04:23;-4.69;84.50
66026;SHT31;56312;55.976;37.136;2023-02-24T22:09:29;-4.70;84.49
66026;SHT31;56312;55.976;37.136;2023-02-24T22:14:36;-4.66;84.54
66026;SHT31;56312;55.976;37.136;2023-02-24T22:19:42;-4.69;84.49
66026;SHT31;56312;55.976;37.136;2023-02-24T22:24:48;-4.70;84.51
66026;SHT31;56312;55.976;37.136;2023-02-24T22:29:56;-4.75;84.55
66026;SHT31;56312;55.976;37.136;2023-02-24T22:35:02;-4.73;84.58
66026;SHT31;56312;55.976;37.136;2023-02-24T22:40:09;-4.73;84.59
66026;SHT31;56312;55.976;37.136;2023-02-24T22:45:16;-4.66;84.64
66026;SHT31;56312;55.976;37.136;2023-02-24T22:50:22;-4.68;84.61
66026;SHT31;56312;55.976;37.136;2023-02-24T22:55:29;-4.73;84.62
66026;SHT31;56312;55.976;37.136;2023-02-24T23:00:35;-4.70;84.65
66026;SHT31;56312;55.976;37.136;2023-02-24T23:05:41;-4.72;84.68
66026;SHT31;56312;55.976;37.136;2023-02-24T23:10:48;-4.68;84.71
66026;SHT31;56312;55.976;37.136;2023-02-24T23:15:54;-4.59;84.74
66026;SHT31;56312;55.976;37.136;2023-02-24T23:21:02;-4.62;84.74
66026;SHT31;56312;55.976;37.136;2023-02-24T23:26:09;-4.66;84.74
66026;SHT31;56312;55.976;37.136;2023-02-24T23:31:17;-4.58;84.76
66026;SHT31;56312;55.976;37.136;2023-02-24T23:36:25;-4.58;84.79
66026;SHT31;56312;55.976;37.136;2023-02-24T23:41:35;-4.63;84.80
66026;SHT31;56312;55.976;37.136;2023-02-24T23:46:42;-4.60;84.80
66026;SHT31;56312;55.976;37.136;2023-02-24T23:51:48;-4.62;84.80
66026;SHT31;56312;55.976;37.136;2023-02-24T23:56:54;-4.56;84.83
